sensor_id;sensor_type;location;lat;lon;timestamp;pressure;altitude;pressure_sealevel;temperature;humidity
71907;BME280;59781;52.090;5.030;2023-04-12T00:01:56;100395.25;;;8.47;100.00
71907;BME280;59781;52.090;5.030;2023-04-12T00:04:22;100396.56;;;8.26;100.00
71907;BME280;59781;52.090;5.030;2023-04-12T00:06:53;100396.09;;;8.39;100.00
71907;BME280;59781;52.090;5.030;2023-04-12T00:09:19;100395.03;;;8.24;100.00
71907;BME280;59781;52.090;5.030;2023-04-12T00:11:45;100385.81;;;8.18;100.00
71907;BME280;59781;52.090;5.030;2023-04-12T00:14:11;100369.22;;;8.23;100.00
71907;BME280;59781;52.090;5.030;2023-04-12T00:16:37;100363.19;;;8.21;100.00
71907;BME280;59781;52.090;5.030;2023-04-12T00:19:03;100352.44;;;8.13;100.00
71907;BME280;59781;52.090;5.030;2023-04-12T00:21:31;100348.28;;;8.18;100.00
71907;BME280;59781;52.090;5.030;2023-04-12T00:23:57;100337.88;;;8.07;100.00
71907;BME280;59781;52.090;5.030;2023-04-12T00:26:23;100341.38;;;7.99;100.00
71907;BME280;59781;52.090;5.030;2023-04-12T00:28:51;100342.25;;;8.08;100.00
71907;BME280;59781;52.090;5.030;2023-04-12T00:31:18;100321.75;;;8.23;100.00
71907;BME280;59781;52.090;5.030;2023-04-12T00:33:43;100322.94;;;8.04;100.00
71907;BME280;59781;52.090;5.030;2023-04-12T00:36:10;100311.06;;;7.91;100.00
71907;BME280;59781;52.090;5.030;2023-04-12T00:38:36;100291.09;;;8.01;100.00
71907;BME280;59781;52.090;5.030;2023-04-12T00:41:02;100280.72;;;7.90;100.00
71907;BME280;59781;52.090;5.030;2023-04-12T00:43:28;100286.56;;;8.02;100.00
71907;BME280;59781;52.090;5.030;2023-04-12T00:45:56;100270.66;;;8.00;100.00
71907;BME280;59781;52.090;5.030;2023-04-12T00:48:25;100246.53;;;7.92;100.00
71907;BME280;59781;52.090;5.030;2023-04-12T00:50:52;100247.88;;;7.88;100.00
71907;BME280;59781;52.090;5.030;2023-04-12T00:53:22;100223.41;;;7.83;100.00
71907;BME280;59781;52.090;5.030;2023-04-12T00:55:49;100236.66;;;7.85;100.00
71907;BME280;59781;52.090;5.030;2023-04-12T00:58:16;100245.88;;;7.82;100.00
71907;BME280;59781;52.090;5.030;2023-04-12T01:00:42;100226.25;;;7.90;100.00
71907;BME280;59781;52.090;5.030;2023-04-12T01:03:16;100231.97;;;7.87;100.00
71907;BME280;59781;52.090;5.030;2023-04-12T01:06:35;100211.03;;;7.82;100.00
71907;BME280;59781;52.090;5.030;2023-04-12T01:15:09;100184.69;;;7.86;100.00
71907;BME280;59781;52.090;5.030;2023-04-12T01:17:45;100175.69;;;7.87;100.00
71907;BME280;59781;52.090;5.030;2023-04-12T01:20:22;100161.22;;;7.96;100.00
71907;BME280;59781;52.090;5.030;2023-04-12T01:29:18;100145.31;;;7.86;100.00
71907;BME280;59781;52.090;5.030;2023-04-12T01:32:06;100133.44;;;7.89;100.00
71907;BME280;59781;52.090;5.030;2023-04-12T01:34:39;100135.75;;;8.00;100.00
71907;BME280;59781;52.090;5.030;2023-04-12T01:37:07;100113.16;;;7.86;100.00
71907;BME280;59781;52.090;5.030;2023-04-12T01:39:34;100110.47;;;7.86;100.00
71907;BME280;59781;52.090;5.030;2023-04-12T01:42:01;100098.44;;;7.82;100.00
71907;BME280;59781;52.090;5.030;2023-04-12T01:44:27;100103.28;;;7.87;100.00
71907;BME280;59781;52.090;5.030;2023-04-12T01:46:53;100089.88;;;7.87;100.00
71907;BME280;59781;52.090;5.030;2023-04-12T01:49:22;100086.69;;;7.91;100.00
71907;BME280;59781;52.090;5.030;2023-04-12T01:52:08;100080.78;;;7.96;100.00
71907;BME280;59781;52.090;5.030;2023-04-12T01:54:41;100082.97;;;7.92;100.00
71907;BME280;59781;52.090;5.030;2023-04-12T01:57:10;100074.47;;;7.89;100.00
71907;BME280;59781;52.090;5.030;2023-04-12T01:59:42;100067.25;;;7.89;100.00
71907;BME280;59781;52.090;5.030;2023-04-12T02:02:12;100056.03;;;7.86;100.00
71907;BME280;59781;52.090;5.030;2023-04-12T02:04:40;100034.75;;;7.84;100.00
71907;BME280;59781;52.090;5.030;2023-04-12T02:07:07;100039.78;;;7.87;100.00
71907;BME280;59781;52.090;5.030;2023-04-12T02:09:37;100046.00;;;7.88;100.00
71907;BME280;59781;52.090;5.030;2023-04-12T02:12:05;100035.53;;;8.01;100.00
71907;BME280;59781;52.090;5.030;2023-04-12T02:14:31;100032.31;;;8.05;100.00
71907;BME280;59781;52.090;5.030;2023-04-12T02:16:57;100022.53;;;7.82;100.00
71907;BME280;59781;52.090;5.030;2023-04-12T02:19:25;100015.50;;;7.81;100.00
71907;BME280;59781;52.090;5.030;2023-04-12T02:21:52;100000.41;;;7.88;100.00
71907;BME280;59781;52.090;5.030;2023-04-12T02:24:18;99999.59;;;7.79;100.00
71907;BME280;59781;52.090;5.030;2023-04-12T02:26:44;99990.00;;;7.85;100.00
71907;BME280;59781;52.090;5.030;2023-04-12T02:29:11;99989.00;;;7.86;100.00
71907;BME280;59781;52.090;5.030;2023-04-12T02:31:37;99973.94;;;7.85;100.00
71907;BME280;59781;52.090;5.030;2023-04-12T02:34:06;99975.56;;;7.94;100.00
71907;BME280;59781;52.090;5.030;2023-04-12T02:36:32;99959.19;;;7.89;100.00
71907;BME280;59781;52.090;5.030;2023-04-12T02:39:02;99966.59;;;7.79;100.00
71907;BME280;59781;52.090;5.030;2023-04-12T02:41:30;99963.34;;;7.91;100.00
71907;BME280;59781;52.090;5.030;2023-04-12T02:43:56;99968.28;;;7.80;100.00
71907;BME280;59781;52.090;5.030;2023-04-12T02:46:24;99962.38;;;7.84;100.00
71907;BME280;59781;52.090;5.030;2023-04-12T02:48:55;99941.31;;;7.73;100.00
71907;BME280;59781;52.090;5.030;2023-04-12T02:51:29;99940.34;;;7.66;100.00
71907;BME280;59781;52.090;5.030;2023-04-12T02:53:57;99921.72;;;7.72;100.00
71907;BME280;59781;52.090;5.030;2023-04-12T02:56:26;99919.72;;;7.74;100.00
71907;BME280;59781;52.090;5.030;2023-04-12T02:59:01;99916.56;;;7.71;100.00
71907;BME280;59781;52.090;5.030;2023-04-12T03:01:49;99913.19;;;7.77;100.00
71907;BME280;59781;52.090;5.030;2023-04-12T03:04:21;99906.13;;;7.76;100.00
71907;BME280;59781;52.090;5.030;2023-04-12T03:06:58;99902.06;;;7.88;100.00
71907;BME280;59781;52.090;5.030;2023-04-12T03:09:30;99899.59;;;7.79;100.00
71907;BME280;59781;52.090;5.030;2023-04-12T03:11:57;99890.72;;;7.78;100.00
71907;BME280;59781;52.090;5.030;2023-04-12T03:14:23;99897.63;;;7.72;100.00
71907;BME280;59781;52.090;5.030;2023-04-12T03:16:49;99886.91;;;7.72;100.00
71907;BME280;59781;52.090;5.030;2023-04-12T03:19:17;99884.44;;;7.63;100.00
71907;BME280;59781;52.090;5.030;2023-04-12T03:21:49;99863.13;;;7.69;100.00
71907;BME280;59781;52.090;5.030;2023-04-12T03:24:15;99875.13;;;7.82;100.00
71907;BME280;59781;52.090;5.030;2023-04-12T03:26:41;99868.59;;;7.76;100.00
71907;BME280;59781;52.090;5.030;2023-04-12T03:29:16;99857.28;;;7.66;100.00
71907;BME280;59781;52.090;5.030;2023-04-12T03:31:45;99863.97;;;7.70;100.00
71907;BME280;59781;52.090;5.030;2023-04-12T03:34:11;99857.47;;;7.64;100.00
71907;BME280;59781;52.090;5.030;2023-04-12T03:36:42;99847.75;;;7.63;100.00
71907;BME280;59781;52.090;5.030;2023-04-12T03:39:22;99844.88;;;7.65;100.00
71907;BME280;59781;52.090;5.030;2023-04-12T03:41:50;99829.72;;;7.57;100.00
71907;BME280;59781;52.090;5.030;2023-04-12T03:44:19;99825.47;;;7.63;100.00
71907;BME280;59781;52.090;5.030;2023-04-12T03:46:46;99838.63;;;7.50;100.00
71907;BME280;59781;52.090;5.030;2023-04-12T03:49:13;99819.88;;;7.50;100.00
71907;BME280;59781;52.090;5.030;2023-04-12T03:51:41;99806.66;;;7.48;100.00
71907;BME280;59781;52.090;5.030;2023-04-12T03:54:09;99804.63;;;7.50;100.00
71907;BME280;59781;52.090;5.030;2023-04-12T03:56:43;99795.59;;;7.51;100.00
71907;BME280;59781;52.090;5.030;2023-04-12T03:59:17;99790.41;;;7.50;100.00
71907;BME280;59781;52.090;5.030;2023-04-12T04:01:44;99798.72;;;7.55;100.00
71907;BME280;59781;52.090;5.030;2023-04-12T04:04:10;99783.31;;;7.57;100.00
71907;BME280;59781;52.090;5.030;2023-04-12T04:06:36;99772.31;;;7.52;100.00
71907;BME280;59781;52.090;5.030;2023-04-12T04:09:03;99781.81;;;7.54;100.00
71907;BME280;59781;52.090;5.030;2023-04-12T04:11:32;99774.09;;;7.59;100.00
71907;BME280;59781;52.090;5.030;2023-04-12T04:14:04;99763.72;;;7.56;100.00
71907;BME280;59781;52.090;5.030;2023-04-12T04:16:30;99772.78;;;7.55;100.00
71907;BME280;59781;52.090;5.030;2023-04-12T04:18:56;99764.41;;;7.58;100.00
71907;BME280;59781;52.090;5.030;2023-04-12T04:21:23;99757.47;;;7.64;100.00
71907;BME280;59781;52.090;5.030;2023-04-12T04:23:54;99756.59;;;7.71;100.00
71907;BME280;59781;52.090;5.030;2023-04-12T04:26:20;99768.41;;;8.00;100.00
71907;BME280;59781;52.090;5.030;2023-04-12T04:28:59;99756.88;;;7.99;100.00
71907;BME280;59781;52.090;5.030;2023-04-12T04:31:31;99747.91;;;7.69;100.00
71907;BME280;59781;52.090;5.030;2023-04-12T04:34:03;99745.31;;;7.76;100.00
71907;BME280;59781;52.090;5.030;2023-04-12T04:36:35;99751.81;;;7.82;100.00
71907;BME280;59781;52.090;5.030;2023-04-12T04:39:03;99741.34;;;7.72;100.00
71907;BME280;59781;52.090;5.030;2023-04-12T04:41:37;99745.22;;;7.69;100.00
71907;BME280;59781;52.090;5.030;2023-04-12T04:44:06;99743.72;;;7.67;100.00
71907;BME280;59781;52.090;5.030;2023-04-12T04:46:38;99741.03;;;7.67;100.00
71907;BME280;59781;52.090;5.030;2023-04-12T04:49:04;99751.69;;;7.75;100.00
71907;BME280;59781;52.090;5.030;2023-04-12T04:51:31;99756.28;;;7.89;100.00
71907;BME280;59781;52.090;5.030;2023-04-12T04:53:59;99748.94;;;7.83;100.00
71907;BME280;59781;52.090;5.030;2023-04-12T04:56:25;99746.88;;;7.70;100.00
71907;BME280;59781;52.090;5.030;2023-04-12T04:58:52;99744.38;;;7.92;100.00
71907;BME280;59781;52.090;5.030;2023-04-12T05:01:19;99759.81;;;7.90;100.00
71907;BME280;59781;52.090;5.030;2023-04-12T05:03:47;99758.16;;;8.03;100.00
71907;BME280;59781;52.090;5.030;2023-04-12T05:06:16;99751.13;;;8.02;100.00
71907;BME280;59781;52.090;5.030;2023-04-12T05:08:42;99753.44;;;8.05;100.00
71907;BME280;59781;52.090;5.030;2023-04-12T05:11:08;99745.75;;;7.88;100.00
71907;BME280;59781;52.090;5.030;2023-04-12T05:13:33;99749.44;;;7.87;100.00
71907;BME280;59781;52.090;5.030;2023-04-12T05:15:59;99741.41;;;7.87;100.00
71907;BME280;59781;52.090;5.030;2023-04-12T05:18:25;99738.88;;;7.85;100.00
71907;BME280;59781;52.090;5.030;2023-04-12T05:20:51;99751.44;;;7.85;100.00
71907;BME280;59781;52.090;5.030;2023-04-12T05:23:17;99756.13;;;8.05;100.00
71907;BME280;59781;52.090;5.030;2023-04-12T05:25:45;99753.94;;;8.09;100.00
71907;BME280;59781;52.090;5.030;2023-04-12T05:28:14;99749.72;;;8.29;100.00
71907;BME280;59781;52.090;5.030;2023-04-12T05:30:42;99761.56;;;8.35;100.00
71907;BME280;59781;52.090;5.030;2023-04-12T05:33:11;99759.59;;;8.29;100.00
71907;BME280;59781;52.090;5.030;2023-04-12T05:35:42;99757.38;;;8.32;100.00
71907;BME280;59781;52.090;5.030;2023-04-12T05:38:09;99744.13;;;8.39;100.00
71907;BME280;59781;52.090;5.030;2023-04-12T05:40:35;99737.84;;;8.24;100.00
71907;BME280;59781;52.090;5.030;2023-04-12T05:43:03;99749.34;;;8.32;100.00
71907;BME280;59781;52.090;5.030;2023-04-12T05:45:30;99740.03;;;8.43;100.00
71907;BME280;59781;52.090;5.030;2023-04-12T05:47:57;99741.06;;;8.57;100.00
71907;BME280;59781;52.090;5.030;2023-04-12T05:50:23;99739.84;;;8.74;100.00
71907;BME280;59781;52.090;5.030;2023-04-12T05:52:50;99740.03;;;8.73;100.00
71907;BME280;59781;52.090;5.030;2023-04-12T05:55:16;99746.31;;;8.65;100.00
71907;BME280;59781;52.090;5.030;2023-04-12T05:57:44;99744.84;;;8.62;100.00
71907;BME280;59781;52.090;5.030;2023-04-12T06:00:14;99746.34;;;8.50;100.00
71907;BME280;59781;52.090;5.030;2023-04-12T06:02:45;99758.19;;;8.56;100.00
71907;BME280;59781;52.090;5.030;2023-04-12T06:05:12;99752.16;;;8.83;100.00
71907;BME280;59781;52.090;5.030;2023-04-12T06:07:40;99756.41;;;8.93;100.00
71907;BME280;59781;52.090;5.030;2023-04-12T06:10:13;99735.69;;;8.86;100.00
71907;BME280;59781;52.090;5.030;2023-04-12T06:12:42;99723.88;;;9.02;100.00
71907;BME280;59781;52.090;5.030;2023-04-12T06:15:08;99737.59;;;8.93;100.00
71907;BME280;59781;52.090;5.030;2023-04-12T06:17:35;99742.34;;;8.90;100.00
71907;BME280;59781;52.090;5.030;2023-04-12T06:20:05;99745.56;;;9.01;100.00
71907;BME280;59781;52.090;5.030;2023-04-12T06:22:37;99753.16;;;8.97;100.00
71907;BME280;59781;52.090;5.030;2023-04-12T06:25:04;99746.59;;;9.00;100.00
71907;BME280;59781;52.090;5.030;2023-04-12T06:27:30;99741.72;;;9.25;100.00
71907;BME280;59781;52.090;5.030;2023-04-12T06:29:56;99734.94;;;9.29;100.00
71907;BME280;59781;52.090;5.030;2023-04-12T06:32:22;99727.19;;;9.19;100.00
71907;BME280;59781;52.090;5.030;2023-04-12T06:34:49;99730.13;;;9.24;100.00
71907;BME280;59781;52.090;5.030;2023-04-12T06:37:15;99729.47;;;9.22;100.00
71907;BME280;59781;52.090;5.030;2023-04-12T06:39:40;99736.59;;;9.30;100.00
71907;BME280;59781;52.090;5.030;2023-04-12T06:42:06;99732.34;;;9.35;100.00
71907;BME280;59781;52.090;5.030;2023-04-12T06:44:37;99719.94;;;9.56;100.00
71907;BME280;59781;52.090;5.030;2023-04-12T06:47:02;99720.06;;;9.47;100.00
71907;BME280;59781;52.090;5.030;2023-04-12T06:49:28;99716.13;;;9.71;100.00
71907;BME280;59781;52.090;5.030;2023-04-12T06:51:54;99720.59;;;9.43;100.00
71907;BME280;59781;52.090;5.030;2023-04-12T06:54:19;99713.34;;;9.58;100.00
71907;BME280;59781;52.090;5.030;2023-04-12T06:56:45;99728.19;;;9.54;100.00
71907;BME280;59781;52.090;5.030;2023-04-12T06:59:11;99734.94;;;9.71;100.00
71907;BME280;59781;52.090;5.030;2023-04-12T07:01:36;99726.84;;;9.65;100.00
71907;BME280;59781;52.090;5.030;2023-04-12T07:04:02;99722.22;;;9.80;100.00
71907;BME280;59781;52.090;5.030;2023-04-12T07:06:28;99724.47;;;9.76;100.00
71907;BME280;59781;52.090;5.030;2023-04-12T07:08:53;99712.69;;;9.56;100.00
71907;BME280;59781;52.090;5.030;2023-04-12T07:11:22;99719.78;;;9.42;100.00
71907;BME280;59781;52.090;5.030;2023-04-12T07:13:48;99716.00;;;9.80;100.00
71907;BME280;59781;52.090;5.030;2023-04-12T07:16:16;99734.19;;;9.56;100.00
71907;BME280;59781;52.090;5.030;2023-04-12T07:18:42;99732.56;;;10.04;100.00
71907;BME280;59781;52.090;5.030;2023-04-12T07:21:08;99728.47;;;9.87;100.00
71907;BME280;59781;52.090;5.030;2023-04-12T07:23:34;99728.16;;;9.97;100.00
71907;BME280;59781;52.090;5.030;2023-04-12T07:26:01;99721.31;;;9.94;100.00
71907;BME280;59781;52.090;5.030;2023-04-12T07:28:27;99729.06;;;9.83;100.00
71907;BME280;59781;52.090;5.030;2023-04-12T07:30:52;99724.03;;;10.01;100.00
71907;BME280;59781;52.090;5.030;2023-04-12T07:33:18;99724.03;;;10.22;100.00
71907;BME280;59781;52.090;5.030;2023-04-12T07:35:44;99708.56;;;10.31;100.00
71907;BME280;59781;52.090;5.030;2023-04-12T07:38:10;99707.78;;;10.37;100.00
71907;BME280;59781;52.090;5.030;2023-04-12T07:40:35;99704.34;;;9.94;100.00
71907;BME280;59781;52.090;5.030;2023-04-12T07:43:01;99701.16;;;10.12;100.00
71907;BME280;59781;52.090;5.030;2023-04-12T07:45:27;99701.66;;;9.94;100.00
71907;BME280;59781;52.090;5.030;2023-04-12T07:47:53;99704.78;;;9.97;100.00
71907;BME280;59781;52.090;5.030;2023-04-12T07:50:19;99700.66;;;10.23;100.00
71907;BME280;59781;52.090;5.030;2023-04-12T07:52:44;99703.97;;;10.25;100.00
71907;BME280;59781;52.090;5.030;2023-04-12T07:55:10;99700.78;;;10.15;100.00
71907;BME280;59781;52.090;5.030;2023-04-12T07:57:36;99700.06;;;10.62;100.00
71907;BME280;59781;52.090;5.030;2023-04-12T08:00:02;99693.47;;;10.71;100.00
71907;BME280;59781;52.090;5.030;2023-04-12T08:02:38;99694.00;;;10.53;100.00
71907;BME280;59781;52.090;5.030;2023-04-12T08:05:04;99690.03;;;10.49;100.00
71907;BME280;59781;52.090;5.030;2023-04-12T08:07:30;99683.09;;;10.68;100.00
71907;BME280;59781;52.090;5.030;2023-04-12T08:09:56;99672.16;;;11.77;100.00
71907;BME280;59781;52.090;5.030;2023-04-12T08:12:22;99668.94;;;13.11;100.00
71907;BME280;59781;52.090;5.030;2023-04-12T08:14:47;99665.28;;;12.27;100.00
71907;BME280;59781;52.090;5.030;2023-04-12T08:17:13;99661.66;;;13.99;100.00
71907;BME280;59781;52.090;5.030;2023-04-12T08:19:39;99669.66;;;14.13;100.00
71907;BME280;59781;52.090;5.030;2023-04-12T08:22:05;99666.25;;;13.99;100.00
71907;BME280;59781;52.090;5.030;2023-04-12T08:24:32;99670.44;;;13.70;100.00
71907;BME280;59781;52.090;5.030;2023-04-12T08:26:58;99666.31;;;13.92;100.00
71907;BME280;59781;52.090;5.030;2023-04-12T08:29:24;99659.56;;;14.63;100.00
71907;BME280;59781;52.090;5.030;2023-04-12T08:31:50;99666.09;;;14.74;100.00
71907;BME280;59781;52.090;5.030;2023-04-12T08:34:16;99668.50;;;14.02;100.00
71907;BME280;59781;52.090;5.030;2023-04-12T08:36:42;99654.25;;;15.05;100.00
71907;BME280;59781;52.090;5.030;2023-04-12T08:39:08;99665.63;;;15.55;100.00
71907;BME280;59781;52.090;5.030;2023-04-12T08:41:33;99675.06;;;15.23;100.00
71907;BME280;59781;52.090;5.030;2023-04-12T08:44:01;99662.19;;;15.48;100.00
71907;BME280;59781;52.090;5.030;2023-04-12T08:46:27;99672.38;;;14.56;100.00
71907;BME280;59781;52.090;5.030;2023-04-12T08:48:54;99680.72;;;14.54;100.00
71907;BME280;59781;52.090;5.030;2023-04-12T08:51:22;99666.78;;;16.01;100.00
71907;BME280;59781;52.090;5.030;2023-04-12T08:53:47;99672.78;;;15.38;100.00
71907;BME280;59781;52.090;5.030;2023-04-12T08:56:14;99666.53;;;13.91;100.00
71907;BME280;59781;52.090;5.030;2023-04-12T08:58:44;99670.28;;;13.33;100.00
71907;BME280;59781;52.090;5.030;2023-04-12T09:01:18;99648.53;;;13.46;100.00
71907;BME280;59781;52.090;5.030;2023-04-12T09:03:45;99662.16;;;13.65;100.00
71907;BME280;59781;52.090;5.030;2023-04-12T09:06:12;99664.91;;;13.27;100.00
71907;BME280;59781;52.090;5.030;2023-04-12T09:08:58;99656.84;;;14.01;100.00
71907;BME280;59781;52.090;5.030;2023-04-12T09:11:26;99649.06;;;14.30;100.00
71907;BME280;59781;52.090;5.030;2023-04-12T09:13:54;99647.47;;;13.54;100.00
71907;BME280;59781;52.090;5.030;2023-04-12T09:16:37;99649.03;;;14.12;100.00
71907;BME280;59781;52.090;5.030;2023-04-12T09:19:07;99644.66;;;14.54;100.00
71907;BME280;59781;52.090;5.030;2023-04-12T09:21:34;99637.00;;;14.51;100.00
71907;BME280;59781;52.090;5.030;2023-04-12T09:24:06;99646.94;;;14.14;100.00
71907;BME280;59781;52.090;5.030;2023-04-12T09:26:38;99652.94;;;13.72;100.00
71907;BME280;59781;52.090;5.030;2023-04-12T09:29:04;99656.63;;;14.03;100.00
71907;BME280;59781;52.090;5.030;2023-04-12T09:31:31;99660.19;;;13.78;100.00
71907;BME280;59781;52.090;5.030;2023-04-12T09:34:07;99657.63;;;13.84;100.00
71907;BME280;59781;52.090;5.030;2023-04-12T09:36:40;99662.56;;;14.37;100.00
71907;BME280;59781;52.090;5.030;2023-04-12T09:39:06;99656.66;;;14.21;100.00
71907;BME280;59781;52.090;5.030;2023-04-12T09:41:32;99654.31;;;14.50;100.00
71907;BME280;59781;52.090;5.030;2023-04-12T09:43:59;99652.09;;;15.25;100.00
71907;BME280;59781;52.090;5.030;2023-04-12T09:46:26;99642.06;;;14.47;100.00
71907;BME280;59781;52.090;5.030;2023-04-12T09:48:56;99643.06;;;14.28;100.00
71907;BME280;59781;52.090;5.030;2023-04-12T09:51:32;99645.25;;;14.38;100.00
71907;BME280;59781;52.090;5.030;2023-04-12T09:54:03;99637.31;;;13.99;100.00
71907;BME280;59781;52.090;5.030;2023-04-12T09:56:35;99638.28;;;14.05;100.00
71907;BME280;59781;52.090;5.030;2023-04-12T09:59:03;99631.34;;;14.52;100.00
71907;BME280;59781;52.090;5.030;2023-04-12T10:01:39;99636.59;;;14.29;100.00
71907;BME280;59781;52.090;5.030;2023-04-12T10:04:07;99643.41;;;14.13;100.00
71907;BME280;59781;52.090;5.030;2023-04-12T10:06:34;99638.34;;;13.98;100.00
71907;BME280;59781;52.090;5.030;2023-04-12T10:09:05;99643.88;;;14.10;100.00
71907;BME280;59781;52.090;5.030;2023-04-12T10:11:33;99635.66;;;13.98;100.00
71907;BME280;59781;52.090;5.030;2023-04-12T10:14:01;99633.38;;;13.95;100.00
71907;BME280;59781;52.090;5.030;2023-04-12T10:16:29;99640.88;;;14.73;100.00
71907;BME280;59781;52.090;5.030;2023-04-12T10:19:01;99634.34;;;14.81;100.00
71907;BME280;59781;52.090;5.030;2023-04-12T10:21:28;99639.72;;;14.07;100.00
71907;BME280;59781;52.090;5.030;2023-04-12T10:23:54;99637.59;;;14.53;100.00
71907;BME280;59781;52.090;5.030;2023-04-12T10:26:20;99648.41;;;13.91;100.00
71907;BME280;59781;52.090;5.030;2023-04-12T10:31:53;99646.25;;;13.12;100.00
71907;BME280;59781;52.090;5.030;2023-04-12T10:34:27;99644.00;;;13.09;100.00
71907;BME280;59781;52.090;5.030;2023-04-12T10:37:00;99642.63;;;12.93;100.00
71907;BME280;59781;52.090;5.030;2023-04-12T10:39:40;99649.75;;;12.81;100.00
71907;BME280;59781;52.090;5.030;2023-04-12T10:44:46;99644.94;;;12.89;100.00
71907;BME280;59781;52.090;5.030;2023-04-12T10:47:12;99643.69;;;12.85;100.00
71907;BME280;59781;52.090;5.030;2023-04-12T10:49:38;99645.31;;;13.38;100.00
71907;BME280;59781;52.090;5.030;2023-04-12T10:52:11;99650.53;;;13.33;100.00
71907;BME280;59781;52.090;5.030;2023-04-12T10:54:38;99652.53;;;13.06;100.00
71907;BME280;59781;52.090;5.030;2023-04-12T10:57:06;99646.81;;;13.59;100.00
71907;BME280;59781;52.090;5.030;2023-04-12T10:59:51;99641.50;;;13.95;100.00
71907;BME280;59781;52.090;5.030;2023-04-12T11:02:20;99635.16;;;15.11;93.48
71907;BME280;59781;52.090;5.030;2023-04-12T11:05:07;99648.81;;;14.56;99.77
71907;BME280;59781;52.090;5.030;2023-04-12T11:07:58;99649.59;;;13.95;100.00
71907;BME280;59781;52.090;5.030;2023-04-12T11:10:45;99641.84;;;15.69;96.24
71907;BME280;59781;52.090;5.030;2023-04-12T11:13:18;99648.72;;;14.81;89.13
71907;BME280;59781;52.090;5.030;2023-04-12T11:15:44;99649.06;;;14.30;91.73
71907;BME280;59781;52.090;5.030;2023-04-12T11:18:10;99647.00;;;14.87;87.68
71907;BME280;59781;52.090;5.030;2023-04-12T11:20:38;99649.94;;;15.15;87.67
71907;BME280;59781;52.090;5.030;2023-04-12T11:23:07;99644.22;;;14.75;81.84
71907;BME280;59781;52.090;5.030;2023-04-12T11:25:33;99649.00;;;14.18;80.70
71907;BME280;59781;52.090;5.030;2023-04-12T11:28:00;99655.09;;;13.89;73.03
71907;BME280;59781;52.090;5.030;2023-04-12T11:30:27;99640.28;;;13.91;72.29
71907;BME280;59781;52.090;5.030;2023-04-12T11:32:52;99661.16;;;14.09;75.35
71907;BME280;59781;52.090;5.030;2023-04-12T11:35:18;99642.50;;;14.01;72.79
71907;BME280;59781;52.090;5.030;2023-04-12T11:37:48;99657.91;;;13.75;71.61
71907;BME280;59781;52.090;5.030;2023-04-12T11:40:14;99666.13;;;14.12;72.89
71907;BME280;59781;52.090;5.030;2023-04-12T11:42:40;99668.06;;;13.55;77.40
71907;BME280;59781;52.090;5.030;2023-04-12T11:45:07;99667.03;;;14.06;82.35
71907;BME280;59781;52.090;5.030;2023-04-12T11:47:41;99664.81;;;13.96;73.91
71907;BME280;59781;52.090;5.030;2023-04-12T11:50:08;99659.25;;;14.71;70.53
71907;BME280;59781;52.090;5.030;2023-04-12T11:52:34;99667.50;;;14.40;66.28
71907;BME280;59781;52.090;5.030;2023-04-12T11:55:02;99663.47;;;14.85;66.39
71907;BME280;59781;52.090;5.030;2023-04-12T11:57:32;99653.59;;;14.91;65.35
71907;BME280;59781;52.090;5.030;2023-04-12T12:00:00;99659.88;;;15.33;65.05
71907;BME280;59781;52.090;5.030;2023-04-12T12:02:27;99656.91;;;14.75;60.73
71907;BME280;59781;52.090;5.030;2023-04-12T12:04:53;99672.69;;;14.48;59.58
71907;BME280;59781;52.090;5.030;2023-04-12T12:07:21;99671.84;;;15.14;60.49
71907;BME280;59781;52.090;5.030;2023-04-12T12:09:47;99666.75;;;15.36;52.65
71907;BME280;59781;52.090;5.030;2023-04-12T12:12:14;99674.09;;;14.69;54.54
71907;BME280;59781;52.090;5.030;2023-04-12T12:14:43;99665.34;;;14.05;55.53
71907;BME280;59781;52.090;5.030;2023-04-12T12:17:14;99684.50;;;14.28;53.25
71907;BME280;59781;52.090;5.030;2023-04-12T12:19:43;99664.13;;;14.99;54.76
71907;BME280;59781;52.090;5.030;2023-04-12T12:27:55;99678.75;;;14.00;58.38
71907;BME280;59781;52.090;5.030;2023-04-12T12:30:17;99687.31;;;13.65;58.63
71907;BME280;59781;52.090;5.030;2023-04-12T12:32:49;99681.13;;;13.90;57.10
71907;BME280;59781;52.090;5.030;2023-04-12T12:35:16;99683.44;;;13.55;58.70
71907;BME280;59781;52.090;5.030;2023-04-12T12:37:51;99682.25;;;13.75;65.47
71907;BME280;59781;52.090;5.030;2023-04-12T12:40:30;99682.22;;;13.82;58.08
71907;BME280;59781;52.090;5.030;2023-04-12T12:42:59;99682.63;;;13.16;52.36
71907;BME280;59781;52.090;5.030;2023-04-12T12:45:27;99689.75;;;13.04;53.31
71907;BME280;59781;52.090;5.030;2023-04-12T12:48:01;99687.84;;;13.11;49.33
71907;BME280;59781;52.090;5.030;2023-04-12T12:50:33;99719.09;;;13.00;52.08
71907;BME280;59781;52.090;5.030;2023-04-12T12:53:02;99705.69;;;12.67;56.71
71907;BME280;59781;52.090;5.030;2023-04-12T12:55:30;99702.25;;;12.33;56.96
71907;BME280;59781;52.090;5.030;2023-04-12T12:57:57;99714.50;;;12.36;68.95
71907;BME280;59781;52.090;5.030;2023-04-12T13:00:26;99717.22;;;12.03;75.36
71907;BME280;59781;52.090;5.030;2023-04-12T13:02:53;99710.16;;;12.09;88.29
71907;BME280;59781;52.090;5.030;2023-04-12T13:05:20;99707.38;;;12.55;100.00
71907;BME280;59781;52.090;5.030;2023-04-12T13:07:47;99697.78;;;13.24;95.70
71907;BME280;59781;52.090;5.030;2023-04-12T13:10:13;99699.53;;;14.06;70.66
71907;BME280;59781;52.090;5.030;2023-04-12T13:12:39;99705.56;;;14.70;68.64
71907;BME280;59781;52.090;5.030;2023-04-12T13:15:05;99697.84;;;15.03;75.24
71907;BME280;59781;52.090;5.030;2023-04-12T13:17:31;99690.63;;;15.75;62.21
71907;BME280;59781;52.090;5.030;2023-04-12T13:19:57;99688.97;;;15.44;60.91
71907;BME280;59781;52.090;5.030;2023-04-12T13:22:23;99681.75;;;14.90;65.76
71907;BME280;59781;52.090;5.030;2023-04-12T13:24:49;99682.97;;;15.96;68.69
71907;BME280;59781;52.090;5.030;2023-04-12T13:27:16;99687.94;;;16.46;59.88